createdAt,value
2023-07-17T00:01:13.720Z,18
2023-07-17T00:03:16.593Z,18
2023-07-17T00:05:15.961Z,18
2023-07-17T00:07:15.476Z,17.9
2023-07-17T00:08:16.890Z,17.9
2023-07-17T00:10:16.412Z,17.9
2023-07-17T00:12:15.934Z,17.9
2023-07-17T00:14:15.433Z,17.9
2023-07-17T00:16:18.357Z,17.8
2023-07-17T00:18:17.896Z,17.8
2023-07-17T00:22:16.852Z,17.8
2023-07-17T00:24:16.353Z,17.7
2023-07-17T00:26:15.909Z,17.7
2023-07-17T00:28:15.392Z,17.7
2023-07-17T00:32:17.832Z,17.6
2023-07-17T00:34:17.325Z,17.6
2023-07-17T00:36:16.840Z,17.6
2023-07-17T00:38:16.352Z,17.5
2023-07-17T00:40:15.878Z,17.5
2023-07-17T00:42:16.926Z,17.5
2023-07-17T00:44:19.869Z,17.4
2023-07-17T00:46:19.413Z,17.4
2023-07-17T00:48:18.849Z,17.3
2023-07-17T00:50:18.392Z,17.3
2023-07-17T00:52:17.927Z,17.3
2023-07-17T00:54:17.415Z,17.2
2023-07-17T00:56:16.963Z,17.2
2023-07-17T00:58:19.908Z,17.1
2023-07-17T01:00:19.420Z,17.1
2023-07-17T01:02:18.951Z,17.1
2023-07-17T01:04:34.233Z,17
2023-07-17T01:06:33.780Z,17
2023-07-17T01:08:33.287Z,16.9
2023-07-17T01:10:36.236Z,16.9
2023-07-17T01:12:35.779Z,17
2023-07-17T01:14:35.324Z,16.9
2023-07-17T01:16:34.871Z,16.9
2023-07-17T01:20:33.922Z,16.8
2023-07-17T01:22:33.463Z,16.8
2023-07-17T01:28:35.491Z,16.6
2023-07-17T01:32:34.591Z,16.5
2023-07-17T01:36:33.641Z,16.5
2023-07-17T01:40:36.128Z,16.3
2023-07-17T01:44:35.210Z,16.3
2023-07-17T01:48:34.327Z,16.2
2023-07-17T01:52:36.831Z,16.2
2023-07-17T01:57:37.427Z,16
2023-07-17T01:59:37.005Z,16
2023-07-17T02:01:36.632Z,15.9
2023-07-17T02:05:39.100Z,15.9
2023-07-17T02:17:36.584Z,15.7
2023-07-17T02:21:39.066Z,15.5
2023-07-17T02:37:39.145Z,15.3
2023-07-17T02:39:38.738Z,15.3
2023-07-17T02:41:38.325Z,15.2
2023-07-17T02:43:37.948Z,15.2
2023-07-17T02:47:40.629Z,15.2
2023-07-17T02:49:40.157Z,15.2
2023-07-17T02:54:40.892Z,15.1
2023-07-17T02:56:40.495Z,15.1
2023-07-17T02:58:40.072Z,15.1
2023-07-17T03:00:43.110Z,15.1
2023-07-17T03:02:42.760Z,15
2023-07-17T03:06:41.916Z,15
2023-07-17T03:14:43.806Z,14.9
2023-07-17T03:16:43.411Z,14.9
2023-07-17T03:20:42.624Z,14.9
2023-07-17T03:22:42.282Z,14.9
2023-07-17T03:24:41.855Z,14.9
2023-07-17T03:26:41.466Z,14.9
2023-07-17T03:30:44.097Z,14.8
2023-07-17T03:32:43.719Z,14.8
2023-07-17T03:34:43.307Z,14.8
2023-07-17T03:36:42.925Z,14.8
2023-07-17T03:38:42.540Z,14.7
2023-07-17T03:40:42.162Z,14.8
2023-07-17T03:42:45.234Z,14.7
2023-07-17T03:44:44.783Z,14.7
2023-07-17T03:46:44.463Z,14.7
2023-07-17T03:47:46.019Z,14.7
2023-07-17T03:49:45.556Z,14.7
2023-07-17T03:51:45.216Z,14.7
2023-07-17T03:59:47.057Z,14.7
2023-07-17T04:03:46.314Z,14.7
2023-07-17T04:05:45.903Z,14.8
2023-07-17T04:07:45.492Z,14.8
2023-07-17T04:09:48.556Z,14.7
2023-07-17T04:11:48.162Z,14.8
2023-07-17T04:13:47.755Z,14.8
2023-07-17T04:15:47.394Z,14.8
2023-07-17T04:17:47.024Z,14.8
2023-07-17T04:35:47.070Z,15
2023-07-17T04:41:49.331Z,15.3
2023-07-17T04:48:04.107Z,15.3
2023-07-17T04:50:07.016Z,16.4
2023-07-17T04:52:06.629Z,16.6
2023-07-17T04:54:06.280Z,16.9
2023-07-17T04:56:05.915Z,16.9
2023-07-17T04:58:05.482Z,17.3
2023-07-17T05:02:04.710Z,17.5
2023-07-17T05:04:07.818Z,17.4
2023-07-17T05:06:07.317Z,17.4
2023-07-17T05:08:06.924Z,17.6
2023-07-17T05:12:06.063Z,17.4
2023-07-17T05:16:05.334Z,17.7
2023-07-17T05:18:08.237Z,17.4
2023-07-17T05:22:07.385Z,17.7
2023-07-17T05:24:06.909Z,17.4
2023-07-17T05:32:08.531Z,17.7
2023-07-17T05:36:07.623Z,17.8
2023-07-17T05:37:09.064Z,17.5
2023-07-17T05:39:08.628Z,17.6
2023-07-17T05:41:08.143Z,17.9
2023-07-17T05:43:07.644Z,17.8
2023-07-17T05:45:10.606Z,17.9
2023-07-17T05:49:09.642Z,18.1
2023-07-17T05:51:09.134Z,17.9
2023-07-17T05:53:08.635Z,17.8
2023-07-17T06:11:07.423Z,18.9
2023-07-17T06:17:09.068Z,19.2
2023-07-17T06:19:08.532Z,18.3
2023-07-17T06:21:07.977Z,18.4
2023-07-17T06:23:07.325Z,18.4
2023-07-17T06:25:06.692Z,19
2023-07-17T06:27:09.897Z,18.8
2023-07-17T06:29:09.224Z,18.8
2023-07-17T06:32:09.959Z,18.3
2023-07-17T06:34:09.350Z,18.5
2023-07-17T06:38:08.186Z,18.6
2023-07-17T06:42:10.529Z,18.7
2023-07-17T06:44:09.945Z,18.8
2023-07-17T06:48:08.923Z,18.3
2023-07-17T06:50:08.334Z,18.3
2023-07-17T06:58:09.611Z,20.3
2023-07-17T07:00:08.993Z,20.6
2023-07-17T07:02:08.611Z,19.2
2023-07-17T07:04:07.842Z,18.2
2023-07-17T07:08:10.014Z,19.2
2023-07-17T07:10:09.374Z,18.7
2023-07-17T07:12:08.723Z,18.5
2023-07-17T07:14:08.178Z,18.3
2023-07-17T07:18:07.119Z,18
2023-07-17T07:20:06.493Z,18.5
2023-07-17T07:22:09.221Z,18.8
2023-07-17T07:27:09.459Z,18.8
2023-07-17T07:35:10.454Z,19.1
2023-07-17T07:37:09.933Z,19.4
2023-07-17T07:39:09.347Z,20.8
2023-07-17T07:41:08.805Z,21.3
2023-07-17T07:45:07.571Z,19.4
2023-07-17T07:47:06.873Z,19
2023-07-17T07:49:09.534Z,18.7
2023-07-17T07:51:08.874Z,18.9
2023-07-17T07:53:08.197Z,19.6
2023-07-17T07:55:07.838Z,20.2
2023-07-17T07:57:06.781Z,20.4
2023-07-17T07:59:06.081Z,20.8
2023-07-17T08:01:05.370Z,20.6
2023-07-17T08:03:08.070Z,20.4
2023-07-17T08:07:06.537Z,21.1
2023-07-17T08:13:04.351Z,19.7
2023-07-17T08:17:06.187Z,19.1
2023-07-17T08:19:05.458Z,19.1
2023-07-17T08:21:04.762Z,19.4
2023-07-17T08:23:25.791Z,19.2
2023-07-17T08:27:24.304Z,19.5
2023-07-17T08:29:26.927Z,20
2023-07-17T08:31:26.511Z,19.9
2023-07-17T08:33:25.426Z,19.5
2023-07-17T08:35:24.689Z,20
2023-07-17T08:37:23.968Z,20
2023-07-17T08:39:23.238Z,20.4
2023-07-17T08:47:23.627Z,21
2023-07-17T08:49:22.784Z,20.8
2023-07-17T08:57:22.997Z,22
2023-07-17T08:59:22.233Z,22.1
2023-07-17T09:07:18.831Z,22.5
2023-07-17T09:22:17.214Z,21.3
2023-07-17T09:24:19.634Z,22.2
2023-07-17T09:26:18.755Z,22.3
2023-07-17T09:28:17.846Z,22.4
2023-07-17T09:30:16.934Z,22.5
2023-07-17T09:32:16.000Z,21.9
2023-07-17T09:34:15.090Z,21.6
2023-07-17T09:36:14.166Z,22.2
2023-07-17T09:38:16.590Z,22.5
2023-07-17T09:40:16.776Z,22.5
2023-07-17T09:42:14.735Z,22.8
2023-07-17T09:46:12.885Z,21.6
2023-07-17T10:00:10.043Z,19.8
2023-07-17T10:02:09.200Z,19.9
2023-07-17T10:06:10.916Z,21.3
2023-07-17T10:08:10.162Z,21.7
2023-07-17T10:10:09.288Z,22
2023-07-17T10:11:10.550Z,22.3
2023-07-17T10:23:09.033Z,18.4
2023-07-17T10:27:07.395Z,18
2023-07-17T10:31:05.880Z,17.7
2023-07-17T10:33:08.625Z,17.9
2023-07-17T10:41:06.022Z,18
2023-07-17T10:53:06.022Z,17.3
2023-07-17T10:57:04.957Z,16.8
2023-07-17T10:59:04.448Z,16.7
2023-07-17T11:01:07.343Z,16.8
2023-07-17T11:03:06.819Z,16.8
2023-07-17T11:05:06.375Z,16.9
2023-07-17T11:06:07.848Z,17.1
2023-07-17T11:08:07.319Z,17
2023-07-17T11:12:06.365Z,17.2
2023-07-17T11:14:09.308Z,17.6
2023-07-17T11:22:07.422Z,19
2023-07-17T11:24:06.923Z,19.6
2023-07-17T11:28:09.378Z,19.3
2023-07-17T11:30:08.931Z,19.2
2023-07-17T11:32:08.437Z,19.5
2023-07-17T11:36:07.409Z,20.6
2023-07-17T11:38:06.873Z,20.2
2023-07-17T11:40:06.359Z,19.9
2023-07-17T11:42:09.243Z,20.6
2023-07-17T11:44:08.572Z,21
2023-07-17T11:46:08.086Z,21.3
2023-07-17T11:48:07.547Z,20.5
2023-07-17T11:52:06.121Z,19.7
2023-07-17T11:58:07.694Z,19.1
2023-07-17T12:00:07.050Z,19.1
2023-07-17T12:12:30.667Z,17.4
2023-07-17T12:14:30.141Z,17.4
2023-07-17T12:16:29.575Z,17.6
2023-07-17T12:18:28.957Z,17.7
2023-07-17T12:20:28.422Z,17.7
2023-07-17T12:22:31.359Z,18.1
2023-07-17T12:24:30.853Z,18
2023-07-17T12:32:30.026Z,18.5
2023-07-17T12:34:28.249Z,19
2023-07-17T12:36:31.174Z,19.9
2023-07-17T12:38:30.662Z,20
2023-07-17T12:40:30.168Z,20
2023-07-17T12:42:29.616Z,19.8
2023-07-17T12:44:29.075Z,19.4
2023-07-17T12:46:28.705Z,19.2
2023-07-17T12:48:28.071Z,19.1
2023-07-17T12:50:30.823Z,19.1
2023-07-17T12:52:30.260Z,19.3
2023-07-17T12:54:29.725Z,19.8
2023-07-17T12:55:31.236Z,20.3
2023-07-17T12:57:30.501Z,20.4
2023-07-17T12:59:29.950Z,21.5
2023-07-17T13:01:29.381Z,22
2023-07-17T13:07:30.722Z,20.6
2023-07-17T13:09:30.033Z,20.2
2023-07-17T13:11:29.341Z,19.9
2023-07-17T13:13:28.692Z,19.7
2023-07-17T13:15:27.942Z,19.6
2023-07-17T13:17:43.477Z,19.1
2023-07-17T13:19:30.000Z,19.1
2023-07-17T13:21:29.275Z,18.9
2023-07-17T13:23:28.636Z,18.6
2023-07-17T13:29:26.797Z,17.6
2023-07-17T13:39:27.332Z,18
2023-07-17T13:41:26.810Z,18.2
2023-07-17T13:43:26.232Z,18.3
2023-07-17T13:45:29.160Z,18.4
2023-07-17T13:47:28.837Z,18.5
2023-07-17T13:49:28.049Z,18.7
2023-07-17T13:50:29.478Z,18.8
2023-07-17T13:52:28.901Z,18.8
2023-07-17T14:00:30.177Z,20
2023-07-17T14:04:29.092Z,20.2
2023-07-17T14:06:28.598Z,20.2
2023-07-17T14:10:27.362Z,20.5
2023-07-17T14:22:26.824Z,21.6
2023-07-17T14:24:26.156Z,21.5
2023-07-17T14:26:28.744Z,20.9
2023-07-17T14:32:26.638Z,21.4
2023-07-17T14:36:25.196Z,20.8
2023-07-17T14:42:26.410Z,20
2023-07-17T14:44:25.676Z,20
2023-07-17T14:45:27.105Z,20.1
2023-07-17T14:49:25.476Z,20
2023-07-17T14:51:24.769Z,20
2023-07-17T14:53:27.380Z,19.9
2023-07-17T14:57:25.936Z,20.2
2023-07-17T14:59:25.233Z,20.3
2023-07-17T15:01:24.642Z,20.3
2023-07-17T15:03:23.914Z,20.1
2023-07-17T15:05:23.094Z,19.9
2023-07-17T15:07:25.791Z,20
2023-07-17T15:09:25.018Z,20.1
2023-07-17T15:11:24.308Z,19.9
2023-07-17T15:13:24.498Z,19.8
2023-07-17T15:17:22.219Z,19.6
2023-07-17T15:19:21.515Z,19.6
2023-07-17T15:21:24.146Z,19.8
2023-07-17T15:23:23.475Z,20
2023-07-17T15:25:22.781Z,20.5
2023-07-17T15:27:22.105Z,20.5
2023-07-17T15:29:21.393Z,21.5
2023-07-17T15:35:22.654Z,22.7
2023-07-17T15:45:34.868Z,25.1
2023-07-17T15:47:37.559Z,23
2023-07-17T15:49:36.760Z,22.4
2023-07-17T15:51:36.017Z,21.7
2023-07-17T15:53:35.256Z,21.3
2023-07-17T15:55:34.525Z,20.8
2023-07-17T15:57:33.775Z,20.5
2023-07-17T15:59:33.018Z,20.5
2023-07-17T16:01:35.708Z,20.7
2023-07-17T16:03:34.876Z,20.7
2023-07-17T16:05:34.199Z,20.8
2023-07-17T16:07:33.400Z,21
2023-07-17T16:09:32.656Z,21.3
2023-07-17T16:11:31.922Z,21.3
2023-07-17T16:13:31.170Z,21
2023-07-17T16:19:32.297Z,21.4
2023-07-17T16:25:30.115Z,22.1
2023-07-17T16:29:31.980Z,20.8
2023-07-17T16:34:31.840Z,25.7
2023-07-17T16:36:31.079Z,26.3
2023-07-17T16:38:30.338Z,26
2023-07-17T16:44:31.455Z,26.5
2023-07-17T16:56:30.250Z,25.1
2023-07-17T16:58:29.444Z,25.3
2023-07-17T17:02:27.930Z,24.4
2023-07-17T17:04:27.310Z,22.8
2023-07-17T17:06:26.355Z,23.2
2023-07-17T17:14:26.614Z,23.6
2023-07-17T17:16:25.879Z,24.8
2023-07-17T17:18:25.059Z,23.7
2023-07-17T17:20:24.328Z,22.1
2023-07-17T17:24:26.107Z,23.9
2023-07-17T17:28:24.570Z,22.8
2023-07-17T17:29:25.847Z,22.9
2023-07-17T17:33:24.331Z,22.1
2023-07-17T17:35:23.540Z,21.8
2023-07-17T17:37:26.129Z,21.1
2023-07-17T17:39:25.367Z,20.9
2023-07-17T17:41:24.597Z,21
2023-07-17T17:43:23.843Z,21
2023-07-17T17:45:23.080Z,20.9
2023-07-17T17:47:22.314Z,20.8
2023-07-17T17:49:21.582Z,20.8
2023-07-17T17:51:24.181Z,20.7
2023-07-17T17:53:24.977Z,20.6
2023-07-17T17:55:24.221Z,20.7
2023-07-17T17:57:23.462Z,20.7
2023-07-17T17:59:22.751Z,20.6
2023-07-17T18:03:21.495Z,20.3
2023-07-17T18:07:23.200Z,20.3
2023-07-17T18:09:22.471Z,20.2
2023-07-17T18:11:21.758Z,20.2
2023-07-17T18:13:21.071Z,20.2
2023-07-17T18:17:19.655Z,20.1
2023-07-17T18:23:21.031Z,19.9
2023-07-17T18:28:21.074Z,19.8
2023-07-17T18:30:20.507Z,19.8
2023-07-17T18:32:23.413Z,19.7
2023-07-17T18:36:22.025Z,19.7
2023-07-17T18:38:21.363Z,19.7
2023-07-17T18:40:20.816Z,19.6
2023-07-17T18:50:21.125Z,19.4
2023-07-17T19:02:21.129Z,19
2023-07-17T19:04:20.640Z,18.9
2023-07-17T19:08:19.455Z,18.8
2023-07-17T19:10:18.910Z,18.7
2023-07-17T19:12:18.431Z,18.6
2023-07-17T19:20:41.463Z,18.4
2023-07-17T19:32:41.863Z,18.1
2023-07-17T19:34:41.321Z,18
2023-07-17T19:36:40.816Z,17.8
2023-07-17T19:42:42.733Z,17.6
2023-07-17T19:48:41.270Z,17.6
2023-07-17T19:50:40.792Z,17.5
2023-07-17T19:52:40.312Z,17.5
2023-07-17T19:54:43.277Z,17.5
2023-07-17T19:58:42.330Z,17.4
2023-07-17T20:10:42.919Z,17
2023-07-17T20:12:42.428Z,16.9
2023-07-17T20:13:43.932Z,16.9
2023-07-17T20:15:43.507Z,16.8
2023-07-17T20:17:42.997Z,16.7
2023-07-17T20:19:42.457Z,16.7
2023-07-17T20:21:45.458Z,16.6
2023-07-17T20:23:44.955Z,16.6
2023-07-17T20:25:44.460Z,16.5
2023-07-17T20:27:43.960Z,16.5
2023-07-17T20:29:43.492Z,16.4
2023-07-17T20:31:43.015Z,16.4
2023-07-17T20:33:42.522Z,16.3
2023-07-17T20:35:45.478Z,16.4
2023-07-17T20:37:44.969Z,16.3
2023-07-17T20:39:44.505Z,16.2
2023-07-17T20:45:43.047Z,16
2023-07-17T20:51:45.042Z,15.8
2023-07-17T20:53:44.597Z,15.8
2023-07-17T20:55:44.076Z,15.8
2023-07-17T20:59:43.175Z,15.8
2023-07-17T21:08:46.200Z,15.5
2023-07-17T21:10:45.742Z,15.4
2023-07-17T21:12:46.202Z,15.4
2023-07-17T21:14:45.696Z,15.4
2023-07-17T21:16:48.694Z,15.4
2023-07-17T21:24:46.901Z,15.2
2023-07-17T21:28:46.046Z,15.2
2023-07-17T21:30:49.097Z,15.1
2023-07-17T21:32:48.676Z,15.1
2023-07-17T21:34:48.170Z,15.1
2023-07-17T21:40:46.896Z,15
2023-07-17T21:42:46.512Z,15
2023-07-17T21:44:49.478Z,14.9
2023-07-17T21:50:48.238Z,14.9
2023-07-17T21:54:47.405Z,14.7
2023-07-17T21:56:47.014Z,14.7
2023-07-17T21:58:50.007Z,14.6
2023-07-17T22:00:49.656Z,14.5
2023-07-17T22:02:49.262Z,14.6
2023-07-17T22:03:50.803Z,14.6
2023-07-17T22:09:49.496Z,14.5
2023-07-17T22:13:52.142Z,14.4
2023-07-17T22:19:50.964Z,14.5
2023-07-17T22:29:52.473Z,14.4
2023-07-17T22:35:51.375Z,14.2
2023-07-17T22:37:50.962Z,14.1
2023-07-17T22:39:54.054Z,13.9
2023-07-17T22:41:53.648Z,13.9
2023-07-17T22:45:52.921Z,13.8
2023-07-17T22:47:52.616Z,13.8
2023-07-17T22:49:52.190Z,13.7
2023-07-17T22:51:51.832Z,13.7
2023-07-17T22:53:54.936Z,13.6
2023-07-17T23:00:15.992Z,13.5
2023-07-17T23:08:18.004Z,13.4
2023-07-17T23:10:17.624Z,13.4
2023-07-17T23:14:16.952Z,13.4
2023-07-17T23:16:16.646Z,13.4
2023-07-17T23:18:16.246Z,13.4
2023-07-17T23:24:18.561Z,13.3
2023-07-17T23:26:18.204Z,13.3
2023-07-17T23:30:17.522Z,13.3
2023-07-17T23:34:20.208Z,13.2
2023-07-17T23:38:21.117Z,13.3
2023-07-17T23:40:20.690Z,13.3
2023-07-17T23:42:20.337Z,13.2
2023-07-17T23:44:20.015Z,13.2
2023-07-17T23:52:22.085Z,13.2
2023-07-17T23:53:23.587Z,13.2
2023-07-17T23:55:23.285Z,13.2
2023-07-17T23:57:22.958Z,13.2
2023-07-17T23:59:22.610Z,13.1
